sensor_id;sensor_type;location;lat;lon;timestamp;pressure;altitude;pressure_sealevel;temperature;humidity
29215;BME280;16252;49.816;7.964;2023-05-29T00:01:51;100156.00;;;19.24;39.21
29215;BME280;16252;49.816;7.964;2023-05-29T00:04:17;100169.41;;;19.17;39.46
29215;BME280;16252;49.816;7.964;2023-05-29T00:06:42;100159.75;;;19.07;39.31
29215;BME280;16252;49.816;7.964;2023-05-29T00:09:08;100183.47;;;19.13;39.69
29215;BME280;16252;49.816;7.964;2023-05-29T00:11:33;100129.53;;;18.77;39.76
29215;BME280;16252;49.816;7.964;2023-05-29T00:13:58;100155.97;;;18.83;40.17
29215;BME280;16252;49.816;7.964;2023-05-29T00:16:24;100182.75;;;18.86;40.02
29215;BME280;16252;49.816;7.964;2023-05-29T00:18:49;100177.50;;;18.76;39.83
29215;BME280;16252;49.816;7.964;2023-05-29T00:21:16;100168.78;;;18.65;40.15
29215;BME280;16252;49.816;7.964;2023-05-29T00:23:42;100173.50;;;18.62;39.58
29215;BME280;16252;49.816;7.964;2023-05-29T00:26:07;100172.16;;;18.58;39.98
29215;BME280;16252;49.816;7.964;2023-05-29T00:28:34;100179.97;;;18.61;39.88
29215;BME280;16252;49.816;7.964;2023-05-29T00:30:59;100150.41;;;18.34;40.02
29215;BME280;16252;49.816;7.964;2023-05-29T00:33:25;100176.00;;;18.48;39.78
29215;BME280;16252;49.816;7.964;2023-05-29T00:35:51;100120.84;;;18.06;40.52
29215;BME280;16252;49.816;7.964;2023-05-29T00:38:16;100144.06;;;18.17;40.43
29215;BME280;16252;49.816;7.964;2023-05-29T00:40:41;100177.81;;;18.31;40.49
29215;BME280;16252;49.816;7.964;2023-05-29T00:43:07;100155.59;;;18.19;40.68
29215;BME280;16252;49.816;7.964;2023-05-29T00:45:32;100174.22;;;18.22;40.66
29215;BME280;16252;49.816;7.964;2023-05-29T00:48:02;100155.84;;;18.08;40.59
29215;BME280;16252;49.816;7.964;2023-05-29T00:50:28;100173.63;;;18.10;40.80
29215;BME280;16252;49.816;7.964;2023-05-29T00:52:53;100114.03;;;17.68;40.81
29215;BME280;16252;49.816;7.964;2023-05-29T00:55:19;100129.44;;;17.75;40.83
29215;BME280;16252;49.816;7.964;2023-05-29T00:57:44;100153.88;;;17.84;41.17
29215;BME280;16252;49.816;7.964;2023-05-29T01:00:12;100137.53;;;17.67;41.16
29215;BME280;16252;49.816;7.964;2023-05-29T01:02:40;100174.38;;;17.86;41.40
29215;BME280;16252;49.816;7.964;2023-05-29T01:05:06;100162.06;;;17.74;40.94
29215;BME280;16252;49.816;7.964;2023-05-29T01:07:32;100177.31;;;17.75;41.25
29215;BME280;16252;49.816;7.964;2023-05-29T01:09:58;100166.28;;;17.68;41.15
29215;BME280;16252;49.816;7.964;2023-05-29T01:12:33;100139.97;;;17.52;41.28
29215;BME280;16252;49.816;7.964;2023-05-29T01:20:42;100166.38;;;17.59;41.43
29215;BME280;16252;49.816;7.964;2023-05-29T01:23:47;100171.25;;;17.55;41.25
29215;BME280;16252;49.816;7.964;2023-05-29T01:26:38;100163.75;;;17.49;41.11
29215;BME280;16252;49.816;7.964;2023-05-29T01:29:07;100142.09;;;17.23;41.76
29215;BME280;16252;49.816;7.964;2023-05-29T01:31:34;100171.06;;;17.30;42.04
29215;BME280;16252;49.816;7.964;2023-05-29T01:34:00;100168.44;;;17.21;41.98
29215;BME280;16252;49.816;7.964;2023-05-29T01:36:26;100113.09;;;16.89;42.16
29215;BME280;16252;49.816;7.964;2023-05-29T01:38:53;100166.75;;;17.20;42.19
29215;BME280;16252;49.816;7.964;2023-05-29T01:41:21;100166.19;;;17.16;42.11
29215;BME280;16252;49.816;7.964;2023-05-29T01:43:47;100124.19;;;16.86;41.95
29215;BME280;16252;49.816;7.964;2023-05-29T01:46:14;100169.69;;;17.08;42.08
29215;BME280;16252;49.816;7.964;2023-05-29T01:48:43;100150.00;;;16.98;42.29
29215;BME280;16252;49.816;7.964;2023-05-29T01:51:09;100161.25;;;16.94;42.21
29215;BME280;16252;49.816;7.964;2023-05-29T01:53:39;100127.25;;;16.73;42.08
29215;BME280;16252;49.816;7.964;2023-05-29T01:56:05;100143.47;;;16.73;42.48
29215;BME280;16252;49.816;7.964;2023-05-29T01:58:31;100175.53;;;16.86;42.53
29215;BME280;16252;49.816;7.964;2023-05-29T02:00:57;100132.88;;;16.62;42.69
29215;BME280;16252;49.816;7.964;2023-05-29T02:03:23;100126.72;;;16.52;42.75
29215;BME280;16252;49.816;7.964;2023-05-29T02:05:49;100169.91;;;16.79;42.72
29215;BME280;16252;49.816;7.964;2023-05-29T02:08:14;100131.66;;;16.56;42.60
29215;BME280;16252;49.816;7.964;2023-05-29T02:10:39;100157.16;;;16.72;42.43
29215;BME280;16252;49.816;7.964;2023-05-29T02:13:05;100134.50;;;16.55;42.73
29215;BME280;16252;49.816;7.964;2023-05-29T02:15:30;100140.44;;;16.58;42.74
29215;BME280;16252;49.816;7.964;2023-05-29T02:17:55;100136.34;;;16.54;42.72
29215;BME280;16252;49.816;7.964;2023-05-29T02:20:20;100086.69;;;16.19;42.79
29215;BME280;16252;49.816;7.964;2023-05-29T02:22:46;100159.19;;;16.60;43.03
29215;BME280;16252;49.816;7.964;2023-05-29T02:25:11;100156.81;;;16.57;42.83
29215;BME280;16252;49.816;7.964;2023-05-29T02:27:36;100119.72;;;16.31;42.86
29215;BME280;16252;49.816;7.964;2023-05-29T02:30:02;100157.13;;;16.54;42.98
29215;BME280;16252;49.816;7.964;2023-05-29T02:32:27;100141.41;;;16.39;42.90
29215;BME280;16252;49.816;7.964;2023-05-29T02:34:54;100151.50;;;16.37;42.86
29215;BME280;16252;49.816;7.964;2023-05-29T02:37:20;100141.16;;;16.33;42.84
29215;BME280;16252;49.816;7.964;2023-05-29T02:39:45;100152.22;;;16.39;43.17
29215;BME280;16252;49.816;7.964;2023-05-29T02:42:10;100128.03;;;16.20;43.00
29215;BME280;16252;49.816;7.964;2023-05-29T02:44:35;100108.78;;;16.05;42.87
29215;BME280;16252;49.816;7.964;2023-05-29T02:47:01;100136.28;;;16.18;43.35
29215;BME280;16252;49.816;7.964;2023-05-29T02:49:26;100162.22;;;16.29;43.69
29215;BME280;16252;49.816;7.964;2023-05-29T02:51:51;100135.00;;;16.13;43.43
29215;BME280;16252;49.816;7.964;2023-05-29T02:54:21;100135.63;;;16.07;43.49
29215;BME280;16252;49.816;7.964;2023-05-29T02:56:47;100144.81;;;16.14;43.60
29215;BME280;16252;49.816;7.964;2023-05-29T02:59:12;100158.47;;;16.12;43.79
29215;BME280;16252;49.816;7.964;2023-05-29T03:01:37;100137.91;;;16.01;43.40
29215;BME280;16252;49.816;7.964;2023-05-29T03:04:02;100135.66;;;15.97;43.23
29215;BME280;16252;49.816;7.964;2023-05-29T03:06:28;100156.06;;;16.09;43.31
29215;BME280;16252;49.816;7.964;2023-05-29T03:08:53;100136.09;;;15.92;43.65
29215;BME280;16252;49.816;7.964;2023-05-29T03:11:18;100155.25;;;15.99;44.05
29215;BME280;16252;49.816;7.964;2023-05-29T03:13:44;100158.50;;;16.02;43.84
29215;BME280;16252;49.816;7.964;2023-05-29T03:16:11;100138.97;;;15.91;43.94
29215;BME280;16252;49.816;7.964;2023-05-29T03:18:36;100107.91;;;15.77;44.03
29215;BME280;16252;49.816;7.964;2023-05-29T03:21:02;100115.72;;;15.80;43.67
29215;BME280;16252;49.816;7.964;2023-05-29T03:23:27;100144.91;;;15.94;43.90
29215;BME280;16252;49.816;7.964;2023-05-29T03:25:52;100146.63;;;15.95;44.00
29215;BME280;16252;49.816;7.964;2023-05-29T03:28:18;100152.69;;;15.97;43.84
29215;BME280;16252;49.816;7.964;2023-05-29T03:30:43;100143.97;;;15.86;44.11
29215;BME280;16252;49.816;7.964;2023-05-29T03:33:08;100111.91;;;15.63;43.80
29215;BME280;16252;49.816;7.964;2023-05-29T03:35:33;100101.84;;;15.55;44.03
29215;BME280;16252;49.816;7.964;2023-05-29T03:37:59;100150.63;;;15.81;43.82
29215;BME280;16252;49.816;7.964;2023-05-29T03:40:24;100131.50;;;15.65;43.92
29215;BME280;16252;49.816;7.964;2023-05-29T03:42:50;100108.69;;;15.50;43.95
29215;BME280;16252;49.816;7.964;2023-05-29T03:45:16;100158.03;;;15.70;44.13
29215;BME280;16252;49.816;7.964;2023-05-29T03:47:41;100140.47;;;15.56;44.03
29215;BME280;16252;49.816;7.964;2023-05-29T03:50:06;100161.59;;;15.60;44.25
29215;BME280;16252;49.816;7.964;2023-05-29T03:52:32;100156.50;;;15.57;44.08
29215;BME280;16252;49.816;7.964;2023-05-29T03:54:58;100174.78;;;15.64;44.18
29215;BME280;16252;49.816;7.964;2023-05-29T03:57:23;100171.41;;;15.52;44.10
29215;BME280;16252;49.816;7.964;2023-05-29T03:59:48;100169.72;;;15.51;44.40
29215;BME280;16252;49.816;7.964;2023-05-29T04:02:13;100179.34;;;15.53;44.26
29215;BME280;16252;49.816;7.964;2023-05-29T04:04:39;100170.13;;;15.46;44.46
29215;BME280;16252;49.816;7.964;2023-05-29T04:07:05;100201.34;;;15.58;44.53
29215;BME280;16252;49.816;7.964;2023-05-29T04:09:32;100199.91;;;15.54;44.87
29215;BME280;16252;49.816;7.964;2023-05-29T04:11:57;100168.47;;;15.35;44.94
29215;BME280;16252;49.816;7.964;2023-05-29T04:14:24;100202.78;;;15.53;44.84
29215;BME280;16252;49.816;7.964;2023-05-29T04:16:50;100186.19;;;15.38;45.09
29215;BME280;16252;49.816;7.964;2023-05-29T04:19:15;100223.47;;;15.62;45.12
29215;BME280;16252;49.816;7.964;2023-05-29T04:21:40;100209.56;;;15.57;45.16
29215;BME280;16252;49.816;7.964;2023-05-29T04:24:06;100204.75;;;15.51;44.90
29215;BME280;16252;49.816;7.964;2023-05-29T04:26:31;100206.31;;;15.53;45.24
29215;BME280;16252;49.816;7.964;2023-05-29T04:28:57;100201.94;;;15.52;44.93
29215;BME280;16252;49.816;7.964;2023-05-29T04:31:24;100197.94;;;15.47;45.17
29215;BME280;16252;49.816;7.964;2023-05-29T04:33:51;100220.63;;;15.64;45.25
29215;BME280;16252;49.816;7.964;2023-05-29T04:36:21;100218.94;;;15.63;44.90
29215;BME280;16252;49.816;7.964;2023-05-29T04:38:48;100200.63;;;15.56;44.86
29215;BME280;16252;49.816;7.964;2023-05-29T04:41:16;100236.72;;;15.75;45.26
29215;BME280;16252;49.816;7.964;2023-05-29T04:43:41;100239.81;;;15.80;45.22
29215;BME280;16252;49.816;7.964;2023-05-29T04:46:06;100239.13;;;15.78;45.57
29215;BME280;16252;49.816;7.964;2023-05-29T04:48:32;100246.06;;;15.90;45.29
29215;BME280;16252;49.816;7.964;2023-05-29T04:50:57;100206.84;;;15.67;45.71
29215;BME280;16252;49.816;7.964;2023-05-29T04:53:24;100241.09;;;15.86;45.34
29215;BME280;16252;49.816;7.964;2023-05-29T04:55:49;100245.75;;;15.93;45.64
29215;BME280;16252;49.816;7.964;2023-05-29T04:58:15;100257.50;;;16.02;45.84
29215;BME280;16252;49.816;7.964;2023-05-29T05:00:40;100264.44;;;16.14;45.69
29215;BME280;16252;49.816;7.964;2023-05-29T05:03:05;100267.97;;;16.15;45.78
29215;BME280;16252;49.816;7.964;2023-05-29T05:05:31;100263.16;;;16.18;45.51
29215;BME280;16252;49.816;7.964;2023-05-29T05:07:56;100251.50;;;16.18;45.98
29215;BME280;16252;49.816;7.964;2023-05-29T05:10:21;100220.31;;;16.06;45.96
29215;BME280;16252;49.816;7.964;2023-05-29T05:12:47;100229.22;;;16.16;46.12
29215;BME280;16252;49.816;7.964;2023-05-29T05:15:12;100260.94;;;16.41;46.50
29215;BME280;16252;49.816;7.964;2023-05-29T05:17:37;100250.16;;;16.41;46.25
29215;BME280;16252;49.816;7.964;2023-05-29T05:20:03;100236.34;;;16.44;46.41
29215;BME280;16252;49.816;7.964;2023-05-29T05:22:31;100202.59;;;16.31;46.47
29215;BME280;16252;49.816;7.964;2023-05-29T05:24:56;100270.31;;;16.75;46.64
29215;BME280;16252;49.816;7.964;2023-05-29T05:27:21;100262.19;;;16.75;46.44
29215;BME280;16252;49.816;7.964;2023-05-29T05:29:46;100293.56;;;16.95;46.54
29215;BME280;16252;49.816;7.964;2023-05-29T05:32:12;100277.19;;;16.97;46.76
29215;BME280;16252;49.816;7.964;2023-05-29T05:34:37;100286.09;;;17.07;46.88
29215;BME280;16252;49.816;7.964;2023-05-29T05:37:02;100262.81;;;16.96;46.70
29215;BME280;16252;49.816;7.964;2023-05-29T05:39:28;100298.94;;;17.23;47.04
29215;BME280;16252;49.816;7.964;2023-05-29T05:41:53;100289.66;;;17.25;46.88
29215;BME280;16252;49.816;7.964;2023-05-29T05:44:18;100254.31;;;17.09;46.59
29215;BME280;16252;49.816;7.964;2023-05-29T05:46:43;100284.63;;;17.30;46.70
29215;BME280;16252;49.816;7.964;2023-05-29T05:49:09;100299.19;;;17.47;46.64
29215;BME280;16252;49.816;7.964;2023-05-29T05:51:35;100288.66;;;17.44;46.34
29215;BME280;16252;49.816;7.964;2023-05-29T05:54:00;100295.84;;;17.53;46.50
29215;BME280;16252;49.816;7.964;2023-05-29T05:56:26;100290.44;;;17.53;46.32
29215;BME280;16252;49.816;7.964;2023-05-29T05:58:51;100300.72;;;17.68;46.32
29215;BME280;16252;49.816;7.964;2023-05-29T06:01:16;100293.59;;;17.67;46.15
29215;BME280;16252;49.816;7.964;2023-05-29T06:03:42;100299.94;;;17.75;46.29
29215;BME280;16252;49.816;7.964;2023-05-29T06:06:07;100291.50;;;17.79;46.42
29215;BME280;16252;49.816;7.964;2023-05-29T06:08:33;100295.16;;;17.87;46.55
29215;BME280;16252;49.816;7.964;2023-05-29T06:10:59;100309.16;;;18.01;46.66
29215;BME280;16252;49.816;7.964;2023-05-29T06:13:24;100300.84;;;18.02;46.07
29215;BME280;16252;49.816;7.964;2023-05-29T06:15:50;100302.94;;;18.08;46.01
29215;BME280;16252;49.816;7.964;2023-05-29T06:18:15;100298.88;;;18.12;46.25
29215;BME280;16252;49.816;7.964;2023-05-29T06:20:40;100298.28;;;18.18;46.27
29215;BME280;16252;49.816;7.964;2023-05-29T06:23:06;100296.78;;;18.24;46.52
29215;BME280;16252;49.816;7.964;2023-05-29T06:25:31;100293.59;;;18.29;46.33
29215;BME280;16252;49.816;7.964;2023-05-29T06:28:00;100309.94;;;18.45;46.21
29215;BME280;16252;49.816;7.964;2023-05-29T06:30:25;100292.97;;;18.43;46.03
29215;BME280;16252;49.816;7.964;2023-05-29T06:32:51;100277.06;;;18.40;46.05
29215;BME280;16252;49.816;7.964;2023-05-29T06:35:16;100293.06;;;18.59;45.98
29215;BME280;16252;49.816;7.964;2023-05-29T06:37:41;100309.03;;;18.71;45.96
29215;BME280;16252;49.816;7.964;2023-05-29T06:40:07;100306.44;;;18.79;45.90
29215;BME280;16252;49.816;7.964;2023-05-29T06:42:32;100300.53;;;18.92;45.92
29215;BME280;16252;49.816;7.964;2023-05-29T06:44:58;100308.22;;;19.13;45.85
29215;BME280;16252;49.816;7.964;2023-05-29T06:47:23;100318.81;;;19.32;45.58
29215;BME280;16252;49.816;7.964;2023-05-29T06:49:49;100298.97;;;19.40;45.21
29215;BME280;16252;49.816;7.964;2023-05-29T06:52:14;100306.13;;;19.57;45.18
29215;BME280;16252;49.816;7.964;2023-05-29T06:54:39;100310.41;;;19.76;45.70
29215;BME280;16252;49.816;7.964;2023-05-29T06:57:05;100309.03;;;20.05;45.11
29215;BME280;16252;49.816;7.964;2023-05-29T06:59:30;100309.50;;;20.25;44.89
29215;BME280;16252;49.816;7.964;2023-05-29T07:01:55;100305.25;;;20.39;44.44
29215;BME280;16252;49.816;7.964;2023-05-29T07:04:21;100309.09;;;20.52;44.22
29215;BME280;16252;49.816;7.964;2023-05-29T07:06:46;100313.66;;;20.68;43.94
29215;BME280;16252;49.816;7.964;2023-05-29T07:09:11;100317.88;;;20.87;43.82
29215;BME280;16252;49.816;7.964;2023-05-29T07:11:38;100325.72;;;21.13;43.29
29215;BME280;16252;49.816;7.964;2023-05-29T07:14:03;100309.66;;;21.27;43.13
29215;BME280;16252;49.816;7.964;2023-05-29T07:16:28;100306.16;;;21.49;42.82
29215;BME280;16252;49.816;7.964;2023-05-29T07:18:53;100319.59;;;21.74;42.81
29215;BME280;16252;49.816;7.964;2023-05-29T07:21:19;100325.88;;;21.97;42.44
29215;BME280;16252;49.816;7.964;2023-05-29T07:23:45;100327.03;;;22.18;42.19
29215;BME280;16252;49.816;7.964;2023-05-29T07:26:10;100310.75;;;22.33;42.42
29215;BME280;16252;49.816;7.964;2023-05-29T07:28:36;100311.44;;;22.79;43.17
29215;BME280;16252;49.816;7.964;2023-05-29T07:31:01;100328.25;;;23.49;43.15
29215;BME280;16252;49.816;7.964;2023-05-29T07:33:26;100316.97;;;24.23;42.24
29215;BME280;16252;49.816;7.964;2023-05-29T07:35:52;100326.25;;;25.20;42.06
29215;BME280;16252;49.816;7.964;2023-05-29T07:38:17;100307.25;;;26.00;40.77
29215;BME280;16252;49.816;7.964;2023-05-29T07:40:42;100302.69;;;26.92;39.23
29215;BME280;16252;49.816;7.964;2023-05-29T07:43:07;100318.84;;;27.90;39.03
29215;BME280;16252;49.816;7.964;2023-05-29T07:45:33;100321.69;;;28.77;37.75
29215;BME280;16252;49.816;7.964;2023-05-29T07:47:58;100301.72;;;29.49;36.02
29215;BME280;16252;49.816;7.964;2023-05-29T07:50:23;100309.13;;;30.32;34.53
29215;BME280;16252;49.816;7.964;2023-05-29T07:52:48;100318.06;;;31.10;33.85
29215;BME280;16252;49.816;7.964;2023-05-29T07:55:14;100331.16;;;31.72;33.57
29215;BME280;16252;49.816;7.964;2023-05-29T07:57:39;100294.91;;;32.19;32.16
29215;BME280;16252;49.816;7.964;2023-05-29T08:00:05;100323.13;;;32.94;31.04
29215;BME280;16252;49.816;7.964;2023-05-29T08:02:31;100321.31;;;33.49;30.15
29215;BME280;16252;49.816;7.964;2023-05-29T08:04:56;100336.53;;;34.00;30.36
29215;BME280;16252;49.816;7.964;2023-05-29T08:07:21;100319.38;;;34.41;29.18
29215;BME280;16252;49.816;7.964;2023-05-29T08:09:46;100328.28;;;34.85;28.55
29215;BME280;16252;49.816;7.964;2023-05-29T08:12:12;100318.47;;;35.20;28.06
29215;BME280;16252;49.816;7.964;2023-05-29T08:14:37;100354.47;;;35.68;27.56
29215;BME280;16252;49.816;7.964;2023-05-29T08:17:03;100355.94;;;36.01;26.89
29215;BME280;16252;49.816;7.964;2023-05-29T08:19:28;100348.69;;;36.31;26.94
29215;BME280;16252;49.816;7.964;2023-05-29T08:21:53;100338.94;;;36.59;26.01
29215;BME280;16252;49.816;7.964;2023-05-29T08:24:18;100341.34;;;36.96;26.05
29215;BME280;16252;49.816;7.964;2023-05-29T08:26:45;100334.81;;;37.26;25.52
29215;BME280;16252;49.816;7.964;2023-05-29T08:29:10;100316.53;;;37.55;24.75
29215;BME280;16252;49.816;7.964;2023-05-29T08:31:36;100322.75;;;37.86;24.49
29215;BME280;16252;49.816;7.964;2023-05-29T08:34:01;100333.38;;;38.18;23.85
29215;BME280;16252;49.816;7.964;2023-05-29T08:36:27;100321.78;;;38.35;23.45
29215;BME280;16252;49.816;7.964;2023-05-29T08:38:53;100343.50;;;38.72;23.16
29215;BME280;16252;49.816;7.964;2023-05-29T08:41:25;100341.31;;;38.93;23.26
29215;BME280;16252;49.816;7.964;2023-05-29T08:43:53;100339.16;;;39.09;22.27
29215;BME280;16252;49.816;7.964;2023-05-29T08:46:18;100349.56;;;39.28;21.63
29215;BME280;16252;49.816;7.964;2023-05-29T08:48:48;100354.22;;;39.56;21.12
29215;BME280;16252;49.816;7.964;2023-05-29T08:51:16;100351.19;;;39.72;21.95
29215;BME280;16252;49.816;7.964;2023-05-29T08:53:44;100354.31;;;39.89;21.30
29215;BME280;16252;49.816;7.964;2023-05-29T08:56:10;100338.06;;;40.05;20.58
29215;BME280;16252;49.816;7.964;2023-05-29T08:58:35;100340.06;;;40.18;20.99
29215;BME280;16252;49.816;7.964;2023-05-29T09:01:01;100345.88;;;40.41;20.68
29215;BME280;16252;49.816;7.964;2023-05-29T09:03:26;100346.63;;;40.60;20.08
29215;BME280;16252;49.816;7.964;2023-05-29T09:05:58;100352.38;;;40.83;20.79
29215;BME280;16252;49.816;7.964;2023-05-29T09:08:24;100350.31;;;41.02;20.25
29215;BME280;16252;49.816;7.964;2023-05-29T09:10:51;100335.25;;;41.12;20.07
29215;BME280;16252;49.816;7.964;2023-05-29T09:13:16;100347.47;;;41.44;19.92
29215;BME280;16252;49.816;7.964;2023-05-29T09:15:41;100354.81;;;41.67;19.83
29215;BME280;16252;49.816;7.964;2023-05-29T09:18:10;100331.66;;;41.84;19.13
29215;BME280;16252;49.816;7.964;2023-05-29T09:20:36;100336.47;;;42.06;18.87
29215;BME280;16252;49.816;7.964;2023-05-29T09:23:04;100339.06;;;42.25;18.70
29215;BME280;16252;49.816;7.964;2023-05-29T09:25:31;100349.47;;;42.47;18.67
29215;BME280;16252;49.816;7.964;2023-05-29T09:28:05;100348.38;;;42.65;18.59
29215;BME280;16252;49.816;7.964;2023-05-29T09:33:10;100341.38;;;42.85;18.29
29215;BME280;16252;49.816;7.964;2023-05-29T09:35:37;100338.44;;;42.99;18.30
29215;BME280;16252;49.816;7.964;2023-05-29T09:38:03;100353.09;;;43.19;17.61
29215;BME280;16252;49.816;7.964;2023-05-29T09:40:30;100344.84;;;43.31;17.23
29215;BME280;16252;49.816;7.964;2023-05-29T09:43:01;100339.72;;;43.42;17.88
29215;BME280;16252;49.816;7.964;2023-05-29T09:45:28;100351.03;;;43.59;17.32
29215;BME280;16252;49.816;7.964;2023-05-29T09:47:53;100354.34;;;43.79;16.57
29215;BME280;16252;49.816;7.964;2023-05-29T09:50:20;100354.50;;;43.91;16.82
29215;BME280;16252;49.816;7.964;2023-05-29T09:52:46;100357.63;;;44.16;16.49
29215;BME280;16252;49.816;7.964;2023-05-29T09:55:13;100355.78;;;44.28;16.91
29215;BME280;16252;49.816;7.964;2023-05-29T09:57:40;100349.81;;;44.39;16.22
29215;BME280;16252;49.816;7.964;2023-05-29T10:00:07;100337.53;;;44.43;16.12
29215;BME280;16252;49.816;7.964;2023-05-29T10:02:38;100361.47;;;44.75;16.20
29215;BME280;16252;49.816;7.964;2023-05-29T10:05:08;100345.19;;;44.81;15.82
29215;BME280;16252;49.816;7.964;2023-05-29T10:07:36;100353.50;;;45.07;16.01
29215;BME280;16252;49.816;7.964;2023-05-29T10:10:05;100356.06;;;45.30;15.76
29215;BME280;16252;49.816;7.964;2023-05-29T10:12:36;100323.69;;;45.27;15.57
29215;BME280;16252;49.816;7.964;2023-05-29T10:15:02;100340.59;;;45.57;15.44
29215;BME280;16252;49.816;7.964;2023-05-29T10:17:33;100346.44;;;45.73;15.67
29215;BME280;16252;49.816;7.964;2023-05-29T10:20:01;100347.81;;;45.88;15.50
29215;BME280;16252;49.816;7.964;2023-05-29T10:22:28;100352.50;;;46.04;15.92
29215;BME280;16252;49.816;7.964;2023-05-29T10:24:56;100338.16;;;46.10;15.37
29215;BME280;16252;49.816;7.964;2023-05-29T10:27:22;100341.69;;;46.19;15.03
29215;BME280;16252;49.816;7.964;2023-05-29T10:29:56;100336.66;;;46.24;15.42
29215;BME280;16252;49.816;7.964;2023-05-29T10:32:35;100339.88;;;46.35;15.38
29215;BME280;16252;49.816;7.964;2023-05-29T10:35:10;100335.63;;;46.41;15.01
29215;BME280;16252;49.816;7.964;2023-05-29T10:40:24;100342.03;;;46.63;14.56
29215;BME280;16252;49.816;7.964;2023-05-29T10:42:51;100336.38;;;46.63;14.47
29215;BME280;16252;49.816;7.964;2023-05-29T10:50:40;100319.13;;;45.98;14.02
29215;BME280;16252;49.816;7.964;2023-05-29T10:53:10;100334.78;;;45.53;14.22
29215;BME280;16252;49.816;7.964;2023-05-29T10:55:37;100326.63;;;44.80;14.00
29215;BME280;16252;49.816;7.964;2023-05-29T10:58:12;100322.78;;;44.20;14.22
29215;BME280;16252;49.816;7.964;2023-05-29T11:00:41;100318.00;;;43.42;14.71
29215;BME280;16252;49.816;7.964;2023-05-29T11:03:08;100330.09;;;42.77;15.00
29215;BME280;16252;49.816;7.964;2023-05-29T11:05:34;100313.47;;;42.04;14.91
29215;BME280;16252;49.816;7.964;2023-05-29T11:08:00;100335.19;;;41.53;15.62
29215;BME280;16252;49.816;7.964;2023-05-29T11:13:34;100331.84;;;40.41;16.02
29215;BME280;16252;49.816;7.964;2023-05-29T11:18:56;100299.34;;;39.17;16.62
29215;BME280;16252;49.816;7.964;2023-05-29T11:23:50;100318.97;;;38.35;17.06
29215;BME280;16252;49.816;7.964;2023-05-29T11:26:16;100315.94;;;37.97;17.33
29215;BME280;16252;49.816;7.964;2023-05-29T11:28:42;100285.84;;;37.49;17.20
29215;BME280;16252;49.816;7.964;2023-05-29T11:31:10;100302.69;;;37.34;17.34
29215;BME280;16252;49.816;7.964;2023-05-29T11:33:40;100307.56;;;37.08;17.92
29215;BME280;16252;49.816;7.964;2023-05-29T11:36:06;100309.72;;;37.21;18.27
29215;BME280;16252;49.816;7.964;2023-05-29T11:38:33;100292.38;;;36.70;17.67
29215;BME280;16252;49.816;7.964;2023-05-29T11:41:01;100305.19;;;36.55;18.17
29215;BME280;16252;49.816;7.964;2023-05-29T11:43:26;100296.34;;;36.28;17.71
29215;BME280;16252;49.816;7.964;2023-05-29T11:45:52;100304.97;;;36.16;18.27
29215;BME280;16252;49.816;7.964;2023-05-29T11:50:45;100290.50;;;35.78;18.19
29215;BME280;16252;49.816;7.964;2023-05-29T11:53:11;100224.50;;;35.27;18.16
29215;BME280;16252;49.816;7.964;2023-05-29T11:55:36;100296.28;;;35.51;18.51
29215;BME280;16252;49.816;7.964;2023-05-29T11:58:05;100268.13;;;35.27;18.24
29215;BME280;16252;49.816;7.964;2023-05-29T12:00:35;100281.19;;;35.21;18.48
29215;BME280;16252;49.816;7.964;2023-05-29T12:03:02;100297.59;;;35.12;18.70
29215;BME280;16252;49.816;7.964;2023-05-29T12:05:32;100277.97;;;34.82;18.84
29215;BME280;16252;49.816;7.964;2023-05-29T12:07:58;100282.94;;;34.74;18.85
29215;BME280;16252;49.816;7.964;2023-05-29T12:10:27;100280.88;;;34.55;18.63
29215;BME280;16252;49.816;7.964;2023-05-29T12:12:54;100252.09;;;34.28;18.78
29215;BME280;16252;49.816;7.964;2023-05-29T12:15:20;100304.97;;;34.44;19.20
29215;BME280;16252;49.816;7.964;2023-05-29T12:17:48;100305.13;;;34.27;18.94
29215;BME280;16252;49.816;7.964;2023-05-29T12:20:14;100298.91;;;34.09;19.31
29215;BME280;16252;49.816;7.964;2023-05-29T12:22:41;100267.25;;;33.78;19.28
29215;BME280;16252;49.816;7.964;2023-05-29T12:25:09;100295.06;;;33.83;19.55
29215;BME280;16252;49.816;7.964;2023-05-29T12:27:38;100299.97;;;33.76;19.32
29215;BME280;16252;49.816;7.964;2023-05-29T12:30:09;100264.69;;;33.44;19.50
29215;BME280;16252;49.816;7.964;2023-05-29T12:32:39;100292.28;;;33.56;20.26
29215;BME280;16252;49.816;7.964;2023-05-29T12:35:25;100280.53;;;33.49;20.08
29215;BME280;16252;49.816;7.964;2023-05-29T12:37:57;100287.72;;;33.45;19.78
29215;BME280;16252;49.816;7.964;2023-05-29T12:40:24;100277.25;;;33.25;19.88
29215;BME280;16252;49.816;7.964;2023-05-29T12:42:59;100276.91;;;33.21;20.02
29215;BME280;16252;49.816;7.964;2023-05-29T12:45:30;100282.09;;;33.13;20.52
29215;BME280;16252;49.816;7.964;2023-05-29T12:47:56;100283.66;;;33.03;20.23
29215;BME280;16252;49.816;7.964;2023-05-29T12:50:26;100279.72;;;32.99;20.44
29215;BME280;16252;49.816;7.964;2023-05-29T12:53:12;100266.03;;;32.93;20.26
29215;BME280;16252;49.816;7.964;2023-05-29T12:55:42;100250.81;;;32.73;20.45
29215;BME280;16252;49.816;7.964;2023-05-29T12:58:11;100243.69;;;32.55;20.93
29215;BME280;16252;49.816;7.964;2023-05-29T13:00:38;100259.78;;;32.58;20.72
29215;BME280;16252;49.816;7.964;2023-05-29T13:03:04;100279.16;;;32.58;20.89
29215;BME280;16252;49.816;7.964;2023-05-29T13:05:31;100265.06;;;32.43;21.24
29215;BME280;16252;49.816;7.964;2023-05-29T13:07:56;100279.25;;;32.47;20.97
29215;BME280;16252;49.816;7.964;2023-05-29T13:10:22;100277.69;;;32.34;20.93
29215;BME280;16252;49.816;7.964;2023-05-29T13:12:48;100261.09;;;32.17;20.60
29215;BME280;16252;49.816;7.964;2023-05-29T13:15:19;100259.00;;;32.07;21.37